Time;durP1;ratioP1;P1;durP2;ratioP2;P2;SDS_P1;SDS_P2;PMS_P1;PMS_P2;Temp;Humidity;BMP_temperature;BMP_pressure;BME280_temperature;BME280_humidity;BME280_pressure;Samples;Min_cycle;Max_cycle;Signal;HPM_P1;HPM_P2
2022/07/26 00:00:02;;;;;;;4.88;1.73;;;;;;;19.74;60.95;100441.59;4933470;29;20198;-85
2022/07/26 00:02:29;;;;;;;5.15;1.23;;;;;;;19.75;60.71;100448.59;4931913;29;20043;-84
2022/07/26 00:04:55;;;;;;;5.22;1.45;;;;;;;19.72;60.98;100441.66;4932638;28;20082;-83
2022/07/26 00:07:22;;;;;;;3.13;1.35;;;;;;;19.74;60.81;100449.56;4930364;29;20138;-86
2022/07/26 00:09:49;;;;;;;5.57;1.00;;;;;;;19.73;60.81;100446.03;4935406;29;20127;-84
2022/07/26 00:12:18;;;;;;;2.63;0.82;;;;;;;19.75;60.80;100448.59;4915201;29;20432;-84
2022/07/26 00:14:46;;;;;;;4.60;0.75;;;;;;;19.76;60.64;100440.53;4933778;29;20039;-88
2022/07/26 00:17:13;;;;;;;4.40;1.10;;;;;;;19.79;60.49;100442.19;4916480;29;20458;-82
2022/07/26 00:19:39;;;;;;;3.58;1.33;;;;;;;19.79;60.54;100435.09;4940675;29;20441;-86
2022/07/26 00:24:54;;;;;;;6.65;0.98;;;;;;;19.82;60.37;100437.63;4935818;28;20044;-83
2022/07/26 00:27:21;;;;;;;4.15;1.65;;;;;;;19.80;60.50;100444.78;4930722;29;20043;-88
2022/07/26 00:29:48;;;;;;;2.40;0.90;;;;;;;19.80;60.50;100444.78;4934133;29;20106;-85
2022/07/26 00:32:15;;;;;;;2.30;0.80;;;;;;;19.80;60.45;100441.25;4930926;29;20067;-86
2022/07/26 00:34:42;;;;;;;4.38;1.15;;;;;;;19.79;60.45;100443.06;4931536;29;20499;-84
2022/07/26 00:37:09;;;;;;;5.15;1.38;;;;;;;19.80;60.22;100439.47;4928831;29;20280;-86
2022/07/26 00:39:35;;;;;;;5.03;1.60;;;;;;;19.81;60.35;100441.19;4946264;28;20051;-84
2022/07/26 00:42:02;;;;;;;4.00;1.08;;;;;;;19.85;60.26;100441.91;4916464;29;20044;-84
2022/07/26 00:44:46;;;;;;;3.85;1.05;;;;;;;19.86;60.26;100448.94;4914630;29;20039;-85
2022/07/26 00:47:14;;;;;;;2.08;1.10;;;;;;;19.86;60.53;100451.59;4946279;29;20135;-84
2022/07/26 00:49:42;;;;;;;4.05;1.10;;;;;;;19.84;60.25;100450.81;4928584;29;20040;-84
2022/07/26 00:52:11;;;;;;;4.00;1.38;;;;;;;19.82;60.36;100460.69;4933740;29;20055;-83
2022/07/26 00:54:41;;;;;;;2.03;1.35;;;;;;;19.80;60.55;100462.50;4931095;29;20099;-83
2022/07/26 00:57:08;;;;;;;5.22;1.48;;;;;;;19.79;60.78;100459.00;4916132;29;20055;-83
2022/07/26 00:59:35;;;;;;;6.55;1.20;;;;;;;19.79;61.01;100463.44;4932335;29;20043;-84
2022/07/26 01:02:13;;;;;;;6.68;1.10;;;;;;;19.76;60.73;100467.09;4917099;29;20047;-84
2022/07/26 01:04:43;;;;;;;6.70;2.03;;;;;;;19.72;60.73;100457.56;4948129;29;20055;-83
2022/07/26 01:07:14;;;;;;;4.00;0.95;;;;;;;19.74;60.62;100458.38;4915234;29;20052;-84
2022/07/26 01:09:41;;;;;;;1.90;1.17;;;;;;;19.74;60.56;100454.88;4933952;29;20074;-85
2022/07/26 01:12:09;;;;;;;3.15;1.02;;;;;;;19.75;60.39;100457.44;4946138;28;20075;-83
2022/07/26 01:14:38;;;;;;;2.97;0.88;;;;;;;19.78;59.98;100456.44;4931879;29;20040;-85
2022/07/26 01:17:05;;;;;;;1.58;0.80;;;;;;;19.82;59.55;100458.88;4932182;29;20040;-85
2022/07/26 01:19:32;;;;;;;2.17;0.85;;;;;;;19.82;59.42;100461.53;4936483;29;20067;-85
2022/07/26 01:21:58;;;;;;;2.63;0.98;;;;;;;19.79;59.15;100451.03;4920490;29;20447;-85
2022/07/26 01:24:25;;;;;;;2.85;1.10;;;;;;;19.79;59.41;100459.00;4940408;29;20075;-86
2022/07/26 01:26:54;;;;;;;2.63;0.77;;;;;;;19.76;59.39;100453.81;4941053;29;20043;-86
2022/07/26 01:29:21;;;;;;;3.05;0.60;;;;;;;19.72;59.53;100454.06;4933290;29;20055;-86
2022/07/26 01:31:51;;;;;;;4.00;0.80;;;;;;;19.72;59.34;100454.06;4948874;29;20043;-84
2022/07/26 01:34:18;;;;;;;3.00;0.60;;;;;;;19.69;59.45;100455.09;4948174;29;20048;-80
2022/07/26 01:36:45;;;;;;;1.20;0.40;;;;;;;19.66;59.54;100457.91;4949565;29;20119;-84
2022/07/26 01:39:12;;;;;;;2.10;0.88;;;;;;;19.69;59.29;100462.22;4942845;28;20059;-83
2022/07/26 01:41:39;;;;;;;2.10;0.85;;;;;;;19.64;59.35;100455.31;4923609;29;20131;-84
2022/07/26 01:44:07;;;;;;;3.45;0.75;;;;;;;19.64;59.23;100455.31;4950509;29;20106;-84
2022/07/26 01:46:35;;;;;;;2.53;0.52;;;;;;;19.60;59.43;100455.56;4939770;29;20055;-85
2022/07/26 01:49:02;;;;;;;0.75;0.20;;;;;;;19.56;59.47;100462.81;4927555;29;20048;-88
2022/07/26 01:51:29;;;;;;;5.05;1.35;;;;;;;19.54;59.49;100458.50;4938657;29;20040;-87
2022/07/26 01:53:56;;;;;;;2.53;0.77;;;;;;;19.51;59.75;100457.69;4934169;29;20480;-84
2022/07/26 01:56:23;;;;;;;5.68;0.70;;;;;;;19.50;59.93;100457.78;4935744;29;20498;-87
2022/07/26 01:58:56;;;;;;;0.85;0.50;;;;;;;19.46;60.10;100467.72;4920008;29;20048;-85
2022/07/26 02:01:22;;;;;;;2.50;0.57;;;;;;;19.43;60.14;100470.50;4935097;29;20040;-85
2022/07/26 02:03:50;;;;;;;4.78;0.55;;;;;;;19.43;60.29;100461.69;4921912;29;20055;-89
2022/07/26 02:06:16;;;;;;;2.75;0.65;;;;;;;19.40;60.59;100464.47;4936081;29;20056;-86
2022/07/26 02:08:51;;;;;;;2.40;0.50;;;;;;;19.40;60.73;100468.00;4940806;29;20055;-90
2022/07/26 02:11:17;;;;;;;3.05;0.70;;;;;;;19.41;60.94;100463.56;4937174;29;20055;-84
2022/07/26 02:13:44;;;;;;;2.25;0.90;;;;;;;19.42;61.01;100463.47;4937107;29;20039;-84
2022/07/26 02:16:14;;;;;;;2.92;0.57;;;;;;;19.39;60.81;100463.63;4921430;29;20071;-84
2022/07/26 02:18:44;;;;;;;0.98;0.65;;;;;;;19.36;61.29;100470.88;4936828;29;20059;-85
2022/07/26 02:21:13;;;;;;;3.75;0.63;;;;;;;19.30;61.51;100467.59;4936958;29;20071;-83
2022/07/26 02:23:40;;;;;;;1.55;0.65;;;;;;;19.31;61.67;100464.00;4935835;28;20047;-85
2022/07/26 02:26:07;;;;;;;1.85;0.70;;;;;;;19.27;61.65;100475.72;4920744;29;20624;-85
2022/07/26 02:28:34;;;;;;;4.35;0.65;;;;;;;19.28;62.04;100474.78;4938757;29;20054;-86
2022/07/26 02:31:01;;;;;;;3.55;0.63;;;;;;;19.29;62.06;100478.28;4920517;29;20084;-86
2022/07/26 02:33:27;;;;;;;2.58;0.38;;;;;;;19.29;62.05;100478.28;4919748;29;20073;-84
2022/07/26 02:35:55;;;;;;;7.57;1.73;;;;;;;19.28;62.23;100477.44;4938972;29;20051;-84
2022/07/26 02:38:22;;;;;;;4.15;0.65;;;;;;;19.25;62.09;100488.19;4949810;28;20048;-87
2022/07/26 02:40:51;;;;;;;2.65;0.73;;;;;;;19.21;62.45;100478.66;4917749;29;20058;-86
2022/07/26 02:43:18;;;;;;;2.35;0.60;;;;;;;19.22;62.42;100487.50;4932300;29;20064;-84
2022/07/26 02:45:45;;;;;;;2.65;0.80;;;;;;;19.23;62.55;100489.19;4933545;29;20071;-82
2022/07/26 02:48:11;;;;;;;1.52;0.95;;;;;;;19.23;63.05;100491.84;4933297;29;20048;-85
2022/07/26 02:50:38;;;;;;;4.75;0.60;;;;;;;19.22;62.69;100495.44;4934162;29;20565;-84
2022/07/26 02:53:06;;;;;;;4.53;0.82;;;;;;;19.20;63.16;100495.50;4919300;29;20424;-89
2022/07/26 02:55:32;;;;;;;8.88;2.20;;;;;;;19.20;63.53;100497.31;4932525;29;20048;-85
2022/07/26 02:57:59;;;;;;;3.85;1.15;;;;;;;19.17;63.26;100498.31;4949268;28;20058;-91
2022/07/26 03:00:29;;;;;;;2.70;0.93;;;;;;;19.17;63.64;100503.63;4937258;29;20043;-85
2022/07/26 03:02:56;;;;;;;4.00;0.90;;;;;;;19.14;64.07;100501.97;4934273;29;20061;-85
2022/07/26 03:05:23;;;;;;;3.63;1.25;;;;;;;19.12;63.97;100500.31;4936033;29;20059;-91
2022/07/26 03:07:50;;;;;;;3.60;0.93;;;;;;;19.12;64.52;100509.13;4936612;29;20059;-87
2022/07/26 03:10:17;;;;;;;3.22;0.50;;;;;;;19.08;64.63;100496.09;4932182;29;20054;-83
2022/07/26 03:12:44;;;;;;;5.13;0.90;;;;;;;19.07;65.08;100507.63;4940557;29;20135;-86
2022/07/26 03:15:11;;;;;;;3.65;1.38;;;;;;;19.06;65.30;100517.41;4936176;29;20035;-83
2022/07/26 03:17:38;;;;;;;6.93;1.30;;;;;;;19.05;65.64;100513.00;4929308;29;20051;-87
2022/07/26 03:20:09;;;;;;;8.23;1.20;;;;;;;19.08;65.61;100510.22;4939062;29;20044;-86
2022/07/26 03:22:36;;;;;;;3.03;0.95;;;;;;;19.10;65.60;100515.44;4934792;29;20040;-82
2022/07/26 03:25:03;;;;;;;2.30;1.10;;;;;;;19.11;65.39;100510.09;4933917;29;20048;-82
2022/07/26 03:27:30;;;;;;;2.55;0.82;;;;;;;19.11;65.35;100517.16;4939590;29;20047;-83
2022/07/26 03:30:00;;;;;;;3.17;1.85;;;;;;;19.13;65.66;100512.66;4938120;29;20115;-86
2022/07/26 03:32:28;;;;;;;2.65;0.88;;;;;;;19.11;65.83;100511.84;4936282;29;20048;-88
2022/07/26 03:34:55;;;;;;;2.95;0.85;;;;;;;19.07;66.34;100508.47;4937613;29;20054;-90
2022/07/26 03:37:22;;;;;;;2.78;1.15;;;;;;;19.05;66.32;100512.16;4922159;29;20047;-85
2022/07/26 03:39:52;;;;;;;2.97;1.02;;;;;;;19.03;66.54;100514.88;4932825;29;20053;-89
2022/07/26 03:42:22;;;;;;;4.47;0.93;;;;;;;19.01;66.83;100506.97;4933522;29;20081;-84
2022/07/26 03:44:51;;;;;;;3.35;0.98;;;;;;;19.04;66.67;100507.78;4934361;29;20054;-85
2022/07/26 03:47:18;;;;;;;1.70;1.02;;;;;;;19.01;66.73;100517.59;4935584;29;20048;-85
2022/07/26 03:49:47;;;;;;;3.42;0.90;;;;;;;19.02;67.17;100518.47;4917361;29;20131;-85
2022/07/26 03:52:14;;;;;;;5.97;1.30;;;;;;;18.98;67.12;100514.22;4936442;29;20071;-87
2022/07/26 03:54:41;;;;;;;5.18;1.27;;;;;;;18.97;67.34;100523.97;4931715;29;20074;-86
2022/07/26 03:57:07;;;;;;;6.32;1.58;;;;;;;19.00;67.64;100515.88;4919961;29;20055;-82
2022/07/26 03:59:35;;;;;;;7.97;2.45;;;;;;;19.03;67.43;100530.78;4917259;29;20040;-86
2022/07/26 04:02:02;;;;;;;3.03;1.42;;;;;;;19.05;67.75;100515.66;4932573;29;20103;-84
2022/07/26 04:04:30;;;;;;;5.72;1.60;;;;;;;19.03;68.24;100516.66;4913653;29;20115;-84
2022/07/26 04:06:56;;;;;;;3.88;0.90;;;;;;;18.99;68.07;100516.81;4919089;29;20780;-89
2022/07/26 04:09:25;;;;;;;4.00;1.30;;;;;;;19.01;68.22;100516.75;4931860;29;20138;-85
2022/07/26 04:11:52;;;;;;;5.70;1.13;;;;;;;19.05;68.73;100512.16;4938192;29;20036;-85
2022/07/26 04:14:20;;;;;;;4.57;1.02;;;;;;;19.07;68.42;100511.13;4935165;29;20043;-84
2022/07/26 04:16:47;;;;;;;6.30;1.75;;;;;;;19.07;68.96;100510.28;4933654;29;20035;-85
2022/07/26 04:19:13;;;;;;;6.60;1.42;;;;;;;19.05;69.15;100512.16;4932613;29;20398;-85
2022/07/26 04:21:40;;;;;;;5.38;1.48;;;;;;;19.03;69.27;100517.50;4932092;29;20047;-83
2022/07/26 04:24:07;;;;;;;4.45;1.30;;;;;;;19.03;69.60;100509.56;4930996;29;20043;-84
2022/07/26 04:26:35;;;;;;;5.93;1.17;;;;;;;19.09;69.62;100511.09;4932370;29;20040;-85
2022/07/26 04:29:02;;;;;;;4.70;1.52;;;;;;;19.05;69.53;100514.81;4934368;29;20065;-85
2022/07/26 04:31:28;;;;;;;4.95;1.42;;;;;;;19.09;69.68;100514.59;4931782;29;20040;-88
2022/07/26 04:33:58;;;;;;;4.10;1.23;;;;;;;19.08;69.93;100518.16;4930461;29;20043;-84
2022/07/26 04:36:25;;;;;;;6.15;1.38;;;;;;;19.06;70.08;100516.50;4930766;29;20138;-82
2022/07/26 04:38:52;;;;;;;3.72;1.52;;;;;;;19.04;70.35;100510.44;4934635;29;20051;-84
2022/07/26 04:41:19;;;;;;;8.48;1.98;;;;;;;19.05;70.62;100517.47;4932824;29;20514;-86
2022/07/26 04:43:46;;;;;;;11.35;1.73;;;;;;;19.04;70.49;100521.06;4937144;28;20526;-85
2022/07/26 04:46:17;;;;;;;3.13;1.90;;;;;;;19.08;70.58;100522.63;4935762;29;20046;-84
2022/07/26 04:48:46;;;;;;;12.93;2.60;;;;;;;19.08;70.80;100518.16;4939318;29;20631;-86
2022/07/26 04:51:13;;;;;;;7.38;1.90;;;;;;;19.09;70.93;100511.09;4932249;29;20043;-84
2022/07/26 04:53:40;;;;;;;9.25;2.10;;;;;;;19.11;71.18;100515.38;4936524;29;20043;-83
2022/07/26 04:56:07;;;;;;;9.90;1.77;;;;;;;19.14;71.39;100517.03;4933313;29;20077;-83
2022/07/26 04:58:35;;;;;;;6.60;2.78;;;;;;;19.20;71.01;100513.22;4933612;29;20091;-88
2022/07/26 05:01:03;;;;;;;9.32;2.85;;;;;;;19.21;70.94;100514.94;4935757;29;20054;-84
2022/07/26 05:03:48;;;;;;;10.15;2.05;;;;;;;19.21;70.97;100513.16;4899927;29;20075;-84
2022/07/26 05:06:16;;;;;;;3.35;1.52;;;;;;;19.23;71.05;100510.41;4932688;29;20055;-86
2022/07/26 05:08:46;;;;;;;8.25;2.10;;;;;;;19.25;71.10;100517.38;4934736;29;20061;-84
2022/07/26 05:11:13;;;;;;;4.63;1.73;;;;;;;19.31;70.97;100510.94;4916417;29;20067;-87
2022/07/26 05:13:40;;;;;;;7.20;2.60;;;;;;;19.28;71.02;100511.06;4930198;29;20071;-86
2022/07/26 05:16:07;;;;;;;8.20;2.25;;;;;;;19.27;71.37;100518.16;4937578;29;20036;-82
2022/07/26 05:18:42;;;;;;;11.07;2.60;;;;;;;19.31;71.06;100514.44;4938216;29;20312;-87
2022/07/26 05:21:09;;;;;;;12.38;3.47;;;;;;;19.31;71.10;100517.09;4935352;29;20106;-83
2022/07/26 05:23:36;;;;;;;7.22;1.85;;;;;;;19.32;71.07;100520.59;4933304;29;20435;-87
2022/07/26 05:26:06;;;;;;;10.45;2.25;;;;;;;19.37;70.79;100515.06;4920879;29;20043;-84
2022/07/26 05:28:33;;;;;;;8.85;2.83;;;;;;;19.38;70.60;100514.16;4932105;29;20139;-84
2022/07/26 05:31:06;;;;;;;4.97;2.05;;;;;;;19.39;70.67;100515.88;4904740;29;20047;-87
2022/07/26 05:33:33;;;;;;;8.05;2.53;;;;;;;19.43;70.57;100520.09;4907417;29;20135;-84
2022/07/26 05:36:04;;;;;;;6.10;1.65;;;;;;;19.43;70.42;100517.44;4938080;29;20051;-85
2022/07/26 05:38:34;;;;;;;7.30;2.58;;;;;;;19.48;70.38;100518.09;4945195;29;20036;-88
2022/07/26 05:41:10;;;;;;;6.97;1.92;;;;;;;19.48;70.06;100523.38;4948190;29;20043;-83
2022/07/26 05:43:39;;;;;;;5.70;2.38;;;;;;;19.57;69.76;100522.94;4930035;29;20491;-87
2022/07/26 05:46:06;;;;;;;5.32;2.05;;;;;;;19.63;69.69;100527.09;4922636;29;20111;-86
2022/07/26 05:48:35;;;;;;;7.75;1.80;;;;;;;19.69;69.33;100531.25;4936647;29;20102;-82
2022/07/26 05:51:09;;;;;;;6.75;1.90;;;;;;;19.65;69.57;100536.69;4924057;29;20044;-81
2022/07/26 05:53:39;;;;;;;8.30;1.80;;;;;;;19.62;69.70;100526.22;4936675;29;20122;-84
2022/07/26 05:56:06;;;;;;;15.65;2.80;;;;;;;19.49;70.40;100533.94;4938033;29;20052;-84
2022/07/26 05:58:33;;;;;;;7.32;1.63;;;;;;;19.41;70.76;100540.53;4935983;29;20042;-83
2022/07/26 06:01:00;;;;;;;6.60;2.03;;;;;;;19.42;70.72;100540.44;4922321;29;20031;-82
2022/07/26 06:03:30;;;;;;;7.38;2.00;;;;;;;19.61;70.35;100539.59;4933965;29;20131;-82
2022/07/26 06:05:59;;;;;;;9.52;1.83;;;;;;;19.77;69.61;100545.00;4933038;29;20071;-84
2022/07/26 06:08:27;;;;;;;5.55;1.67;;;;;;;19.82;69.23;100543.00;4919888;29;20063;-87
2022/07/26 06:10:54;;;;;;;6.80;2.55;;;;;;;19.77;69.57;100550.31;4922953;29;20058;-85
2022/07/26 06:13:21;;;;;;;7.18;2.13;;;;;;;19.80;69.48;100553.69;4922585;29;20130;-84
2022/07/26 06:15:50;;;;;;;4.20;2.08;;;;;;;19.99;69.07;100560.78;4940134;29;20478;-82
2022/07/26 06:18:24;;;;;;;2.47;1.58;;;;;;;20.09;68.91;100553.19;4944904;29;20039;-86
2022/07/26 06:20:52;;;;;;;1.30;1.20;;;;;;;20.27;67.66;100554.06;4925563;29;20051;-85
2022/07/26 06:23:23;;;;;;;5.45;2.53;;;;;;;20.30;67.75;100553.91;4927280;29;20494;-85
2022/07/26 06:25:54;;;;;;;3.63;1.77;;;;;;;20.36;67.55;100550.91;4938588;29;20098;-82
2022/07/26 06:28:32;;;;;;;9.45;2.55;;;;;;;20.43;67.17;100557.66;4922556;29;20479;-83
2022/07/26 06:31:06;;;;;;;5.25;1.90;;;;;;;20.43;67.20;100557.66;4938182;29;20050;-84
2022/07/26 06:33:34;;;;;;;4.00;1.63;;;;;;;20.37;67.03;100560.63;4927823;29;20050;-83
2022/07/26 06:36:01;;;;;;;5.78;2.00;;;;;;;20.30;66.95;100559.22;4923739;29;20432;-84
2022/07/26 06:38:32;;;;;;;6.28;2.55;;;;;;;20.01;68.19;100553.56;4938559;29;20047;-83
2022/07/26 06:40:58;;;;;;;3.65;2.55;;;;;;;19.87;69.01;100553.41;4936394;29;20032;-83
2022/07/26 06:43:25;;;;;;;6.55;2.22;;;;;;;19.85;69.19;100556.13;4939432;29;20055;-85
2022/07/26 06:45:52;;;;;;;10.38;2.20;;;;;;;19.91;69.10;100549.69;4937973;29;20043;-82
2022/07/26 06:48:19;;;;;;;7.40;3.03;;;;;;;19.85;69.45;100548.16;4921461;29;20044;-81
2022/07/26 06:50:49;;;;;;;8.98;2.72;;;;;;;19.85;69.31;100560.59;4936713;29;20047;-81
2022/07/26 06:53:16;;;;;;;6.22;2.75;;;;;;;19.85;69.48;100558.78;4934329;29;20127;-84
2022/07/26 06:55:43;;;;;;;5.40;2.78;;;;;;;19.90;69.04;100550.59;4939525;29;20039;-85
2022/07/26 06:58:11;;;;;;;9.63;3.03;;;;;;;19.99;68.46;100555.47;4941215;29;20061;-87
2022/07/26 07:00:38;;;;;;;4.53;2.05;;;;;;;20.05;68.04;100554.28;4938623;29;20040;-84
2022/07/26 07:03:05;;;;;;;5.97;2.70;;;;;;;20.19;68.09;100556.25;4935839;29;20595;-86
2022/07/26 07:05:37;;;;;;;5.87;2.57;;;;;;;20.57;66.39;100569.34;4936215;29;20051;-86
2022/07/26 07:08:07;;;;;;;9.63;2.75;;;;;;;20.74;65.57;100563.19;4921893;29;20140;-91
2022/07/26 07:10:34;;;;;;;9.02;2.75;;;;;;;20.76;65.53;100566.63;4938369;29;20399;-84
2022/07/26 07:13:01;;;;;;;3.72;2.25;;;;;;;20.78;65.62;100560.28;4937103;29;20042;-85
2022/07/26 07:15:28;;;;;;;7.15;2.55;;;;;;;20.82;65.12;100561.00;4945355;29;20040;-87
2022/07/26 07:18:00;;;;;;;4.75;2.17;;;;;;;20.82;64.97;100571.63;4947270;29;20036;-84
2022/07/26 07:20:33;;;;;;;6.93;2.78;;;;;;;20.95;64.47;100563.84;4944282;29;20053;-85
2022/07/26 07:23:02;;;;;;;3.95;2.42;;;;;;;21.26;63.16;100563.03;4940428;29;20031;-86
2022/07/26 07:25:30;;;;;;;4.28;2.33;;;;;;;21.62;61.97;100567.25;4925572;29;20052;-85
2022/07/26 07:27:59;;;;;;;5.78;1.75;;;;;;;22.15;60.39;100561.59;4938488;29;20047;-81
2022/07/26 07:30:51;;;;;;;4.55;2.25;;;;;;;22.85;57.60;100547.63;4937689;29;20052;-86
2022/07/26 07:33:18;;;;;;;5.50;1.83;;;;;;;22.97;57.54;100554.00;4937962;29;20047;-83
2022/07/26 07:35:45;;;;;;;4.88;1.95;;;;;;;22.81;57.12;100564.78;4921258;29;20054;-81
2022/07/26 07:38:15;;;;;;;5.50;1.85;;;;;;;22.67;56.15;100562.09;4934510;29;20051;-80
2022/07/26 07:40:42;;;;;;;3.83;2.25;;;;;;;22.33;56.64;100561.44;4922552;29;20110;-83
2022/07/26 07:43:09;;;;;;;9.02;2.10;;;;;;;21.81;58.48;100563.53;4918916;29;20503;-84
2022/07/26 07:45:36;;;;;;;4.65;1.85;;;;;;;21.35;60.16;100566.97;4937196;29;20047;-83
2022/07/26 07:48:07;;;;;;;6.32;2.55;;;;;;;21.52;59.69;100571.34;4936966;29;20044;-83
2022/07/26 07:50:38;;;;;;;4.82;2.13;;;;;;;22.20;57.85;100558.66;4936247;29;20393;-85
2022/07/26 07:53:07;;;;;;;4.78;1.85;;;;;;;22.93;54.73;100568.50;4921545;29;20063;-86
2022/07/26 07:55:34;;;;;;;5.20;1.90;;;;;;;23.03;53.91;100556.28;4937194;29;20094;-84
2022/07/26 07:58:04;;;;;;;6.65;2.42;;;;;;;23.27;53.37;100575.28;4935037;29;20044;-83
2022/07/26 08:00:31;;;;;;;3.10;1.77;;;;;;;23.84;51.79;100565.38;4914459;29;20075;-87
2022/07/26 08:09:11;;;;;;;5.45;2.08;;;;;;;24.52;49.07;100562.66;4936591;29;20048;-84
2022/07/26 08:12:07;;;;;;;4.05;1.50;;;;;;;23.74;50.28;100566.94;4940719;29;20043;-82
2022/07/26 08:14:42;;;;;;;5.47;1.63;;;;;;;23.57;50.87;100568.03;4942627;29;20095;-83
2022/07/26 08:17:11;;;;;;;2.80;1.63;;;;;;;23.17;52.18;100574.16;4943990;29;20044;-85
2022/07/26 08:19:38;;;;;;;7.45;2.10;;;;;;;22.93;53.11;100589.84;4938922;29;20039;-84
2022/07/26 08:22:07;;;;;;;5.07;1.83;;;;;;;22.72;54.08;100589.34;4931377;29;20061;-83
2022/07/26 08:24:39;;;;;;;9.93;2.42;;;;;;;22.54;54.58;100583.31;4945365;29;20040;-84
2022/07/26 08:27:14;;;;;;;5.68;1.80;;;;;;;22.33;55.03;100588.97;4950694;29;20707;-85
2022/07/26 08:29:44;;;;;;;3.65;2.13;;;;;;;22.05;55.97;100598.59;4950356;29;20055;-92
2022/07/26 08:32:12;;;;;;;2.55;2.22;;;;;;;22.06;56.22;100600.31;4940174;29;20060;-86
2022/07/26 08:34:54;;;;;;;5.55;1.52;;;;;;;22.06;57.14;100610.97;4935909;29;20055;-85
2022/07/26 08:40:09;;;;;;;4.68;0.77;;;;;;;21.29;61.71;100645.41;4934946;29;20407;-84
2022/07/26 08:42:52;;;;;;;3.22;1.23;;;;;;;20.98;64.10;100657.66;4922259;29;20139;-84
2022/07/26 08:45:31;;;;;;;2.65;0.88;;;;;;;20.71;69.54;100659.13;4922124;29;20170;-84
2022/07/26 08:50:42;;;;;;;1.85;1.10;;;;;;;19.98;72.59;100679.47;4935899;29;20066;-84
2022/07/26 08:53:11;;;;;;;2.50;0.93;;;;;;;19.56;74.64;100688.50;4924974;29;20050;-83
2022/07/26 08:55:41;;;;;;;2.08;0.80;;;;;;;19.19;77.18;100690.16;4941468;29;20055;-84
2022/07/26 08:58:16;;;;;;;1.63;1.17;;;;;;;18.84;79.59;100696.03;4942390;29;20055;-86
2022/07/26 09:00:44;;;;;;;1.92;0.73;;;;;;;18.59;81.99;100716.56;4944999;29;20075;-89
2022/07/26 09:03:28;;;;;;;1.00;0.63;;;;;;;18.39;83.88;100710.28;4928832;29;20115;-85
2022/07/26 09:06:22;;;;;;;1.73;0.63;;;;;;;18.13;85.68;100712.22;4921844;29;20052;-83
2022/07/26 09:08:52;;;;;;;1.42;0.80;;;;;;;18.05;85.85;100716.09;4946760;29;20096;-83
2022/07/26 09:11:25;;;;;;;2.20;0.73;;;;;;;18.07;85.66;100717.75;4936542;29;20047;-86
2022/07/26 09:14:07;;;;;;;1.17;0.52;;;;;;;18.08;85.61;100726.53;4936577;29;20042;-84
2022/07/26 09:16:37;;;;;;;0.88;0.52;;;;;;;18.14;84.92;100727.16;4942885;29;20059;-84
2022/07/26 09:19:23;;;;;;;0.75;0.73;;;;;;;18.17;85.37;100735.00;4926424;29;20047;-92
2022/07/26 09:22:09;;;;;;;0.75;0.60;;;;;;;18.21;84.59;100734.88;4927361;29;20036;-83
2022/07/26 09:24:51;;;;;;;4.13;1.02;;;;;;;18.23;84.72;100733.03;4928614;29;20047;-85
2022/07/26 09:27:25;;;;;;;3.22;1.08;;;;;;;18.29;85.34;100732.78;4941622;29;20058;-84
2022/07/26 09:30:02;;;;;;;2.20;0.80;;;;;;;18.37;84.46;100743.94;4960258;28;20526;-84
2022/07/26 09:32:35;;;;;;;4.28;1.25;;;;;;;18.40;84.69;100753.56;4938435;29;20050;-84
2022/07/26 09:35:16;;;;;;;3.03;0.90;;;;;;;18.48;86.15;100762.91;4921093;29;20067;-82
2022/07/26 09:37:47;;;;;;;3.08;0.93;;;;;;;18.64;84.70;100755.22;4948300;29;20099;-87
2022/07/26 09:40:28;;;;;;;6.25;1.10;;;;;;;18.96;84.97;100757.50;4934599;29;20050;-84
2022/07/26 09:43:00;;;;;;;0.98;0.77;;;;;;;19.37;83.58;100764.59;4935118;29;20067;-83
2022/07/26 09:45:35;;;;;;;2.00;0.82;;;;;;;19.89;80.54;100756.09;4941419;29;20562;-83
2022/07/26 09:48:04;;;;;;;8.30;1.15;;;;;;;20.38;77.43;100761.75;4922952;29;20039;-83
2022/07/26 09:50:33;;;;;;;2.95;0.68;;;;;;;20.71;75.88;100744.25;4939883;29;20039;-87
2022/07/26 09:53:11;;;;;;;1.17;0.45;;;;;;;20.73;74.99;100747.66;5026232;23;20051;-83
2022/07/26 09:55:56;;;;;;;2.08;0.73;;;;;;;20.88;74.62;100744.22;4936634;29;20059;-84
2022/07/26 09:58:27;;;;;;;3.20;0.82;;;;;;;21.09;72.92;100742.31;4949914;29;20055;-85
2022/07/26 10:01:03;;;;;;;1.70;0.80;;;;;;;21.03;73.83;100753.25;4958910;29;20517;-84
2022/07/26 10:03:37;;;;;;;2.53;0.93;;;;;;;21.07;73.46;100744.16;4953342;29;20028;-85
2022/07/26 10:06:04;;;;;;;1.83;0.88;;;;;;;20.92;73.88;100742.28;4950210;29;20036;-85
2022/07/26 10:08:32;;;;;;;3.45;1.00;;;;;;;20.99;74.57;100749.03;4950784;29;20046;-84
2022/07/26 10:11:08;;;;;;;0.93;0.80;;;;;;;21.04;74.25;100746.13;4918954;29;20078;-84
2022/07/26 10:13:38;;;;;;;1.60;1.10;;;;;;;21.13;74.53;100757.16;4950368;29;20043;-82
2022/07/26 10:16:30;;;;;;;1.38;1.25;;;;;;;21.32;73.25;100774.84;4952538;29;20130;-86
2022/07/26 10:18:58;;;;;;;1.45;1.13;;;;;;;21.41;72.87;100774.34;4948073;29;20102;-83
2022/07/26 10:21:36;;;;;;;1.08;0.90;;;;;;;21.39;71.81;100770.03;4952474;29;20054;-84
2022/07/26 10:24:08;;;;;;;1.80;1.42;;;;;;;21.13;72.47;100777.56;4937819;29;20058;-84
2022/07/26 10:26:39;;;;;;;2.50;1.07;;;;;;;20.74;74.60;100782.19;4935977;29;20058;-82
2022/07/26 10:29:17;;;;;;;1.17;1.00;;;;;;;20.48;76.62;100791.38;4952997;29;20046;-85
2022/07/26 10:32:05;;;;;;;2.08;1.08;;;;;;;20.12;76.72;100789.56;4968632;28;20031;-87
2022/07/26 10:34:49;;;;;;;2.85;0.95;;;;;;;19.84;78.53;100798.78;4955583;28;20497;-88
2022/07/26 10:37:30;;;;;;;2.42;1.23;;;;;;;19.60;80.07;100804.25;4948699;29;20039;-83
2022/07/26 10:40:44;;;;;;;2.58;1.00;;;;;;;19.45;81.88;100808.47;4938219;29;20182;-82
2022/07/26 10:43:17;;;;;;;4.13;2.10;;;;;;;19.30;81.84;100812.63;4935797;29;20423;-84
2022/07/26 10:45:45;;;;;;;2.58;1.55;;;;;;;19.19;82.91;100822.84;4934584;29;20310;-84
2022/07/26 10:48:18;;;;;;;1.23;0.68;;;;;;;19.05;81.83;100823.41;4936549;29;20065;-87
2022/07/26 10:50:57;;;;;;;1.10;1.00;;;;;;;18.96;81.23;100826.47;4952652;29;20497;-87
2022/07/26 10:53:32;;;;;;;0.88;0.60;;;;;;;18.96;81.14;100827.31;4917769;29;20127;-91
2022/07/26 10:56:12;;;;;;;1.42;0.98;;;;;;;19.01;80.77;100833.28;4934071;29;20522;-87
2022/07/26 10:58:45;;;;;;;3.30;0.90;;;;;;;19.63;78.99;100829.81;4937102;29;20518;-90
2022/07/26 11:01:13;;;;;;;1.42;0.68;;;;;;;20.45;74.30;100836.75;4917057;29;20617;-83
2022/07/26 11:03:43;;;;;;;3.80;0.60;;;;;;;21.45;69.24;100829.19;4930696;29;20056;-84
2022/07/26 11:06:16;;;;;;;0.52;0.50;;;;;;;22.49;64.98;100822.81;4927421;29;20048;-84
2022/07/26 11:08:47;;;;;;;1.65;0.90;;;;;;;24.02;60.13;100816.50;4929705;29;20051;-86
2022/07/26 11:11:27;;;;;;;2.63;0.30;;;;;;;25.24;55.46;100817.47;4946821;29;20054;-87
2022/07/26 11:14:08;;;;;;;2.40;0.30;;;;;;;25.72;51.13;100821.38;4931170;29;20039;-83
2022/07/26 11:16:47;;;;;;;0.52;0.32;;;;;;;25.30;51.27;100824.22;4925347;29;20122;-84
2022/07/26 11:19:24;;;;;;;1.70;0.45;;;;;;;24.73;52.65;100830.69;4928462;29;20506;-84
2022/07/26 11:22:00;;;;;;;1.90;0.73;;;;;;;24.45;53.13;100833.31;4929036;29;20126;-84
2022/07/26 11:24:29;;;;;;;1.00;0.28;;;;;;;24.49;53.73;100836.66;4912093;29;20463;-84
2022/07/26 11:27:06;;;;;;;1.20;0.40;;;;;;;24.67;50.93;100831.97;4912192;29;20040;-83
2022/07/26 11:29:36;;;;;;;0.95;0.10;;;;;;;24.51;52.19;100829.41;4915962;29;20043;-90
2022/07/26 11:32:05;;;;;;;1.23;0.20;;;;;;;24.40;52.50;100839.94;4915818;29;20427;-83
2022/07/26 11:34:35;;;;;;;0.17;0.10;;;;;;;24.47;51.39;100837.72;4912956;29;20050;-87
2022/07/26 11:37:04;;;;;;;2.42;0.08;;;;;;;24.17;51.67;100836.94;4917064;29;20085;-84
2022/07/26 11:39:36;;;;;;;0.45;0.20;;;;;;;23.72;52.77;100841.50;4912187;29;20051;-92
2022/07/26 11:42:11;;;;;;;0.35;0.20;;;;;;;23.29;53.08;100844.94;4925977;29;20048;-85
2022/07/26 11:44:45;;;;;;;0.10;0.10;;;;;;;22.99;53.65;100852.91;4930272;29;20579;-85
2022/07/26 11:47:14;;;;;;;0.28;0.08;;;;;;;22.91;54.05;100856.03;4915771;29;20119;-84
2022/07/26 11:49:41;;;;;;;1.55;0.10;;;;;;;22.77;54.70;100846.97;4931250;29;20051;-84
2022/07/26 11:52:08;;;;;;;1.65;0.35;;;;;;;23.00;53.47;100843.94;4923585;29;20064;-84